KGRI

Central Nebraska Regional Airport

Grand Island, Nebraska, USA
METAR KGRI 161153Z AUTO 26006KT 10SM CLR 01/M03 A3022 RMK AO2 SLP251 T00061033 10028 20006 53003
Observed Flight Rules
Oct-16 @ 11:53 UTC (20 minutes ago) Visual Flight Rules
Wind Visibility Clouds
260° at 6 knots 10 miles
  • Clear skies
Temperatures Readings
Current 1°C / 34°F
Dewpoint -3°C / 27°F
Humidity 75%
Altimeter 30.22" Hg
Pressure 1025.1 hPa
Elevation 561
METAR KGRI 161153Z AUTO 26006KT 10SM CLR 01/M03 A3022 RMK AO2 SLP251 T00061033 10028 20006 53003
Observed Flight Rules
Oct-16 @ 11:53 UTC
(20 minutes ago)
VFR
Wind Visibility
260° at 6 knots 10 miles
Clouds
  • Clear skies
Temperature Dewpoint
1°C / 34°F -3°C / 27°F
Humidity Altimeter Pressure
75% 30.22" Hg 1025.1 hPa